sensor_id;sensor_type;location;lat;lon;timestamp;P1;durP1;ratioP1;P2;durP2;ratioP2
35306;SDS011;21420;52.196;21.416;2022-08-20T00:00:22;7.53;;;5.42;;
35306;SDS011;21420;52.196;21.416;2022-08-20T00:02:52;11.18;;;5.80;;
35306;SDS011;21420;52.196;21.416;2022-08-20T00:05:30;7.62;;;5.37;;
35306;SDS011;21420;52.196;21.416;2022-08-20T00:07:56;10.20;;;5.30;;
35306;SDS011;21420;52.196;21.416;2022-08-20T00:10:23;11.50;;;5.25;;
35306;SDS011;21420;52.196;21.416;2022-08-20T00:12:51;9.25;;;6.37;;
35306;SDS011;21420;52.196;21.416;2022-08-20T00:15:19;9.35;;;5.95;;
35306;SDS011;21420;52.196;21.416;2022-08-20T00:17:50;7.08;;;5.22;;
35306;SDS011;21420;52.196;21.416;2022-08-20T00:20:18;7.97;;;5.90;;
35306;SDS011;21420;52.196;21.416;2022-08-20T00:22:47;10.50;;;5.80;;
35306;SDS011;21420;52.196;21.416;2022-08-20T00:25:14;8.43;;;5.92;;
35306;SDS011;21420;52.196;21.416;2022-08-20T00:27:41;9.70;;;5.50;;
35306;SDS011;21420;52.196;21.416;2022-08-20T00:30:09;12.07;;;5.37;;
35306;SDS011;21420;52.196;21.416;2022-08-20T00:32:44;12.33;;;6.15;;
35306;SDS011;21420;52.196;21.416;2022-08-20T00:35:15;13.60;;;6.30;;
35306;SDS011;21420;52.196;21.416;2022-08-20T00:37:46;14.87;;;6.30;;
35306;SDS011;21420;52.196;21.416;2022-08-20T00:40:14;12.98;;;5.87;;
35306;SDS011;21420;52.196;21.416;2022-08-20T00:42:43;10.35;;;5.55;;
35306;SDS011;21420;52.196;21.416;2022-08-20T00:45:14;11.10;;;6.22;;
35306;SDS011;21420;52.196;21.416;2022-08-20T00:47:43;12.35;;;5.92;;
35306;SDS011;21420;52.196;21.416;2022-08-20T00:50:10;11.03;;;6.17;;
35306;SDS011;21420;52.196;21.416;2022-08-20T00:52:40;10.20;;;6.85;;
35306;SDS011;21420;52.196;21.416;2022-08-20T00:55:10;11.25;;;6.00;;
35306;SDS011;21420;52.196;21.416;2022-08-20T00:57:42;13.22;;;6.40;;
35306;SDS011;21420;52.196;21.416;2022-08-20T01:00:51;12.45;;;6.50;;
35306;SDS011;21420;52.196;21.416;2022-08-20T01:05:25;8.55;;;5.53;;
35306;SDS011;21420;52.196;21.416;2022-08-20T01:07:53;11.00;;;6.22;;
35306;SDS011;21420;52.196;21.416;2022-08-20T01:10:25;9.28;;;6.15;;
35306;SDS011;21420;52.196;21.416;2022-08-20T01:12:52;9.15;;;6.83;;
35306;SDS011;21420;52.196;21.416;2022-08-20T01:15:22;10.32;;;6.40;;
35306;SDS011;21420;52.196;21.416;2022-08-20T01:17:54;10.05;;;6.42;;
35306;SDS011;21420;52.196;21.416;2022-08-20T01:20:26;10.40;;;6.33;;
35306;SDS011;21420;52.196;21.416;2022-08-20T01:26:20;7.00;;;5.45;;
35306;SDS011;21420;52.196;21.416;2022-08-20T01:31:39;9.40;;;6.30;;
35306;SDS011;21420;52.196;21.416;2022-08-20T01:34:08;8.95;;;6.20;;
35306;SDS011;21420;52.196;21.416;2022-08-20T01:36:44;10.80;;;5.60;;
35306;SDS011;21420;52.196;21.416;2022-08-20T01:39:13;10.20;;;6.55;;
35306;SDS011;21420;52.196;21.416;2022-08-20T01:41:48;10.93;;;6.50;;
35306;SDS011;21420;52.196;21.416;2022-08-20T01:44:38;7.90;;;6.35;;
35306;SDS011;21420;52.196;21.416;2022-08-20T01:49:44;12.63;;;6.80;;
35306;SDS011;21420;52.196;21.416;2022-08-20T01:52:33;10.85;;;7.00;;
35306;SDS011;21420;52.196;21.416;2022-08-20T01:55:09;11.68;;;6.60;;
35306;SDS011;21420;52.196;21.416;2022-08-20T01:57:36;10.95;;;6.85;;
35306;SDS011;21420;52.196;21.416;2022-08-20T02:00:05;8.30;;;6.05;;
35306;SDS011;21420;52.196;21.416;2022-08-20T02:02:35;10.18;;;6.75;;
35306;SDS011;21420;52.196;21.416;2022-08-20T02:05:02;9.50;;;7.08;;
35306;SDS011;21420;52.196;21.416;2022-08-20T02:07:29;16.40;;;8.25;;
35306;SDS011;21420;52.196;21.416;2022-08-20T02:09:57;8.05;;;6.55;;
35306;SDS011;21420;52.196;21.416;2022-08-20T02:12:23;14.63;;;8.18;;
35306;SDS011;21420;52.196;21.416;2022-08-20T02:14:52;10.23;;;7.12;;
35306;SDS011;21420;52.196;21.416;2022-08-20T02:17:21;13.95;;;7.25;;
35306;SDS011;21420;52.196;21.416;2022-08-20T02:19:50;13.55;;;7.22;;
35306;SDS011;21420;52.196;21.416;2022-08-20T02:22:25;10.58;;;6.72;;
35306;SDS011;21420;52.196;21.416;2022-08-20T02:25:04;9.18;;;6.65;;
35306;SDS011;21420;52.196;21.416;2022-08-20T02:30:03;10.72;;;7.15;;
35306;SDS011;21420;52.196;21.416;2022-08-20T02:32:34;16.67;;;7.28;;
35306;SDS011;21420;52.196;21.416;2022-08-20T02:35:01;10.98;;;7.08;;
35306;SDS011;21420;52.196;21.416;2022-08-20T02:37:31;10.05;;;7.22;;
35306;SDS011;21420;52.196;21.416;2022-08-20T02:39:58;10.35;;;6.85;;
35306;SDS011;21420;52.196;21.416;2022-08-20T02:42:24;10.60;;;6.83;;
35306;SDS011;21420;52.196;21.416;2022-08-20T02:44:50;10.93;;;7.05;;
35306;SDS011;21420;52.196;21.416;2022-08-20T02:47:18;13.65;;;7.37;;
35306;SDS011;21420;52.196;21.416;2022-08-20T02:49:44;7.67;;;6.47;;
35306;SDS011;21420;52.196;21.416;2022-08-20T02:52:10;8.10;;;6.97;;
35306;SDS011;21420;52.196;21.416;2022-08-20T02:54:36;13.55;;;7.25;;
35306;SDS011;21420;52.196;21.416;2022-08-20T02:57:02;12.35;;;7.42;;
35306;SDS011;21420;52.196;21.416;2022-08-20T02:59:29;7.87;;;6.67;;
35306;SDS011;21420;52.196;21.416;2022-08-20T03:01:55;10.78;;;6.55;;
35306;SDS011;21420;52.196;21.416;2022-08-20T03:04:21;14.00;;;7.55;;
35306;SDS011;21420;52.196;21.416;2022-08-20T03:06:47;12.45;;;7.33;;
35306;SDS011;21420;52.196;21.416;2022-08-20T03:09:13;16.05;;;8.18;;
35306;SDS011;21420;52.196;21.416;2022-08-20T03:11:40;8.73;;;7.30;;
35306;SDS011;21420;52.196;21.416;2022-08-20T03:14:06;9.13;;;6.90;;
35306;SDS011;21420;52.196;21.416;2022-08-20T03:16:32;11.80;;;7.05;;
35306;SDS011;21420;52.196;21.416;2022-08-20T03:18:58;9.25;;;7.65;;
35306;SDS011;21420;52.196;21.416;2022-08-20T03:21:24;10.30;;;7.67;;
35306;SDS011;21420;52.196;21.416;2022-08-20T03:23:51;10.98;;;7.92;;
35306;SDS011;21420;52.196;21.416;2022-08-20T03:26:17;10.20;;;7.03;;
35306;SDS011;21420;52.196;21.416;2022-08-20T03:28:43;12.82;;;7.42;;
35306;SDS011;21420;52.196;21.416;2022-08-20T03:31:09;10.28;;;7.25;;
35306;SDS011;21420;52.196;21.416;2022-08-20T03:33:37;11.38;;;8.00;;
35306;SDS011;21420;52.196;21.416;2022-08-20T03:36:04;9.30;;;8.08;;
35306;SDS011;21420;52.196;21.416;2022-08-20T03:38:32;10.68;;;7.42;;
35306;SDS011;21420;52.196;21.416;2022-08-20T03:40:58;10.58;;;8.10;;
35306;SDS011;21420;52.196;21.416;2022-08-20T03:43:25;13.72;;;7.70;;
35306;SDS011;21420;52.196;21.416;2022-08-20T03:45:51;11.57;;;7.83;;
35306;SDS011;21420;52.196;21.416;2022-08-20T03:48:18;14.23;;;7.97;;
35306;SDS011;21420;52.196;21.416;2022-08-20T03:50:47;12.78;;;7.53;;
35306;SDS011;21420;52.196;21.416;2022-08-20T03:53:15;12.95;;;7.85;;
35306;SDS011;21420;52.196;21.416;2022-08-20T03:55:44;10.70;;;7.50;;
35306;SDS011;21420;52.196;21.416;2022-08-20T03:58:12;10.20;;;7.33;;
35306;SDS011;21420;52.196;21.416;2022-08-20T04:00:46;13.32;;;8.25;;
35306;SDS011;21420;52.196;21.416;2022-08-20T04:03:13;13.32;;;7.05;;
35306;SDS011;21420;52.196;21.416;2022-08-20T04:05:41;8.15;;;7.35;;
35306;SDS011;21420;52.196;21.416;2022-08-20T04:08:11;8.03;;;7.28;;
35306;SDS011;21420;52.196;21.416;2022-08-20T04:10:44;12.37;;;7.30;;
35306;SDS011;21420;52.196;21.416;2022-08-20T04:13:13;11.73;;;7.85;;
35306;SDS011;21420;52.196;21.416;2022-08-20T04:15:40;9.85;;;7.28;;
35306;SDS011;21420;52.196;21.416;2022-08-20T04:18:07;8.98;;;7.50;;
35306;SDS011;21420;52.196;21.416;2022-08-20T04:20:36;13.80;;;7.08;;
35306;SDS011;21420;52.196;21.416;2022-08-20T04:23:04;13.00;;;7.00;;
35306;SDS011;21420;52.196;21.416;2022-08-20T04:25:32;12.47;;;8.08;;
35306;SDS011;21420;52.196;21.416;2022-08-20T04:28:01;9.53;;;7.05;;
35306;SDS011;21420;52.196;21.416;2022-08-20T04:30:31;9.50;;;8.23;;
35306;SDS011;21420;52.196;21.416;2022-08-20T04:32:58;10.00;;;7.45;;
35306;SDS011;21420;52.196;21.416;2022-08-20T04:35:24;9.48;;;8.10;;
35306;SDS011;21420;52.196;21.416;2022-08-20T04:37:59;10.53;;;8.23;;
35306;SDS011;21420;52.196;21.416;2022-08-20T04:40:32;10.48;;;7.92;;
35306;SDS011;21420;52.196;21.416;2022-08-20T04:43:19;16.75;;;8.98;;
35306;SDS011;21420;52.196;21.416;2022-08-20T04:45:50;12.18;;;8.43;;
35306;SDS011;21420;52.196;21.416;2022-08-20T04:48:17;9.18;;;8.28;;
35306;SDS011;21420;52.196;21.416;2022-08-20T04:50:47;11.70;;;7.42;;
35306;SDS011;21420;52.196;21.416;2022-08-20T04:53:14;12.03;;;8.15;;
35306;SDS011;21420;52.196;21.416;2022-08-20T04:55:43;10.03;;;7.75;;
35306;SDS011;21420;52.196;21.416;2022-08-20T04:58:12;12.10;;;8.68;;
35306;SDS011;21420;52.196;21.416;2022-08-20T05:00:53;14.15;;;8.70;;
35306;SDS011;21420;52.196;21.416;2022-08-20T05:03:22;11.95;;;8.68;;
35306;SDS011;21420;52.196;21.416;2022-08-20T05:05:50;13.03;;;7.62;;
35306;SDS011;21420;52.196;21.416;2022-08-20T05:08:17;14.80;;;8.13;;
35306;SDS011;21420;52.196;21.416;2022-08-20T05:10:48;11.88;;;8.03;;
35306;SDS011;21420;52.196;21.416;2022-08-20T05:13:14;16.37;;;8.65;;
35306;SDS011;21420;52.196;21.416;2022-08-20T05:15:41;10.72;;;8.23;;
35306;SDS011;21420;52.196;21.416;2022-08-20T05:18:09;10.85;;;7.97;;
35306;SDS011;21420;52.196;21.416;2022-08-20T05:20:38;12.65;;;8.85;;
35306;SDS011;21420;52.196;21.416;2022-08-20T05:23:07;15.78;;;8.25;;
35306;SDS011;21420;52.196;21.416;2022-08-20T05:25:36;15.58;;;8.45;;
35306;SDS011;21420;52.196;21.416;2022-08-20T05:28:05;12.40;;;8.98;;
35306;SDS011;21420;52.196;21.416;2022-08-20T05:30:42;11.03;;;8.60;;
35306;SDS011;21420;52.196;21.416;2022-08-20T05:33:11;12.98;;;8.45;;
35306;SDS011;21420;52.196;21.416;2022-08-20T05:35:40;10.30;;;8.73;;
35306;SDS011;21420;52.196;21.416;2022-08-20T05:38:08;13.48;;;8.80;;
35306;SDS011;21420;52.196;21.416;2022-08-20T05:40:38;13.55;;;8.35;;
35306;SDS011;21420;52.196;21.416;2022-08-20T05:43:06;12.18;;;8.43;;
35306;SDS011;21420;52.196;21.416;2022-08-20T05:45:34;10.82;;;8.28;;
35306;SDS011;21420;52.196;21.416;2022-08-20T05:48:04;14.60;;;8.70;;
35306;SDS011;21420;52.196;21.416;2022-08-20T05:50:36;14.28;;;8.63;;
35306;SDS011;21420;52.196;21.416;2022-08-20T05:53:04;10.70;;;8.45;;
35306;SDS011;21420;52.196;21.416;2022-08-20T05:55:31;12.73;;;8.38;;
35306;SDS011;21420;52.196;21.416;2022-08-20T05:57:58;12.98;;;8.68;;
35306;SDS011;21420;52.196;21.416;2022-08-20T06:00:27;10.32;;;7.80;;
35306;SDS011;21420;52.196;21.416;2022-08-20T06:02:55;16.60;;;8.10;;
35306;SDS011;21420;52.196;21.416;2022-08-20T06:05:39;15.68;;;8.48;;
35306;SDS011;21420;52.196;21.416;2022-08-20T06:08:06;13.03;;;8.05;;
35306;SDS011;21420;52.196;21.416;2022-08-20T06:10:34;14.68;;;7.80;;
35306;SDS011;21420;52.196;21.416;2022-08-20T06:13:03;14.05;;;8.53;;
35306;SDS011;21420;52.196;21.416;2022-08-20T06:15:29;13.20;;;7.80;;
35306;SDS011;21420;52.196;21.416;2022-08-20T06:17:57;13.65;;;7.53;;
35306;SDS011;21420;52.196;21.416;2022-08-20T06:20:23;13.80;;;8.83;;
35306;SDS011;21420;52.196;21.416;2022-08-20T06:22:50;8.68;;;7.58;;
35306;SDS011;21420;52.196;21.416;2022-08-20T06:25:16;15.15;;;8.28;;
35306;SDS011;21420;52.196;21.416;2022-08-20T06:27:43;14.10;;;8.10;;
35306;SDS011;21420;52.196;21.416;2022-08-20T06:30:10;15.30;;;8.85;;
35306;SDS011;21420;52.196;21.416;2022-08-20T06:32:38;12.45;;;8.13;;
35306;SDS011;21420;52.196;21.416;2022-08-20T06:35:06;11.25;;;8.15;;
35306;SDS011;21420;52.196;21.416;2022-08-20T06:37:35;15.60;;;8.45;;
35306;SDS011;21420;52.196;21.416;2022-08-20T06:42:36;11.33;;;8.10;;
35306;SDS011;21420;52.196;21.416;2022-08-20T06:45:08;10.40;;;7.15;;
35306;SDS011;21420;52.196;21.416;2022-08-20T06:47:41;10.50;;;7.72;;
35306;SDS011;21420;52.196;21.416;2022-08-20T06:50:09;13.15;;;8.55;;
35306;SDS011;21420;52.196;21.416;2022-08-20T06:52:42;10.85;;;7.72;;
35306;SDS011;21420;52.196;21.416;2022-08-20T06:55:09;11.95;;;7.10;;
35306;SDS011;21420;52.196;21.416;2022-08-20T06:57:37;10.68;;;7.87;;
35306;SDS011;21420;52.196;21.416;2022-08-20T07:00:05;9.30;;;6.65;;
35306;SDS011;21420;52.196;21.416;2022-08-20T07:02:35;14.45;;;8.58;;
35306;SDS011;21420;52.196;21.416;2022-08-20T07:05:02;10.00;;;7.47;;
35306;SDS011;21420;52.196;21.416;2022-08-20T07:07:30;10.88;;;7.50;;
35306;SDS011;21420;52.196;21.416;2022-08-20T07:09:58;12.63;;;7.50;;
35306;SDS011;21420;52.196;21.416;2022-08-20T07:12:29;10.32;;;8.75;;
35306;SDS011;21420;52.196;21.416;2022-08-20T07:14:55;11.73;;;7.45;;
35306;SDS011;21420;52.196;21.416;2022-08-20T07:17:22;14.98;;;7.37;;
35306;SDS011;21420;52.196;21.416;2022-08-20T07:19:48;11.60;;;9.00;;
35306;SDS011;21420;52.196;21.416;2022-08-20T07:22:15;9.20;;;7.97;;
35306;SDS011;21420;52.196;21.416;2022-08-20T07:24:42;11.55;;;6.95;;
35306;SDS011;21420;52.196;21.416;2022-08-20T07:27:09;10.08;;;8.03;;
35306;SDS011;21420;52.196;21.416;2022-08-20T07:29:35;13.13;;;7.30;;
35306;SDS011;21420;52.196;21.416;2022-08-20T07:32:19;8.75;;;6.50;;
35306;SDS011;21420;52.196;21.416;2022-08-20T07:35:03;8.53;;;7.10;;
35306;SDS011;21420;52.196;21.416;2022-08-20T07:37:37;11.68;;;7.83;;
35306;SDS011;21420;52.196;21.416;2022-08-20T07:40:14;12.35;;;7.30;;
35306;SDS011;21420;52.196;21.416;2022-08-20T07:42:40;9.80;;;6.85;;
35306;SDS011;21420;52.196;21.416;2022-08-20T07:45:07;9.83;;;6.55;;
35306;SDS011;21420;52.196;21.416;2022-08-20T07:47:37;12.35;;;7.40;;
35306;SDS011;21420;52.196;21.416;2022-08-20T07:50:06;6.70;;;5.62;;
35306;SDS011;21420;52.196;21.416;2022-08-20T07:52:35;11.05;;;6.75;;
35306;SDS011;21420;52.196;21.416;2022-08-20T07:55:07;10.18;;;5.90;;
35306;SDS011;21420;52.196;21.416;2022-08-20T07:57:33;14.38;;;6.75;;
35306;SDS011;21420;52.196;21.416;2022-08-20T08:00:01;10.88;;;5.67;;
35306;SDS011;21420;52.196;21.416;2022-08-20T08:02:35;10.32;;;6.40;;
35306;SDS011;21420;52.196;21.416;2022-08-20T08:05:03;8.45;;;5.92;;
35306;SDS011;21420;52.196;21.416;2022-08-20T08:07:31;9.43;;;5.70;;
35306;SDS011;21420;52.196;21.416;2022-08-20T08:10:03;9.90;;;6.05;;
35306;SDS011;21420;52.196;21.416;2022-08-20T08:12:37;12.00;;;5.78;;
35306;SDS011;21420;52.196;21.416;2022-08-20T08:15:09;8.43;;;5.40;;
35306;SDS011;21420;52.196;21.416;2022-08-20T08:17:40;10.78;;;6.75;;
35306;SDS011;21420;52.196;21.416;2022-08-20T08:20:09;9.68;;;5.45;;
35306;SDS011;21420;52.196;21.416;2022-08-20T08:22:39;10.63;;;5.30;;
35306;SDS011;21420;52.196;21.416;2022-08-20T08:25:09;10.32;;;5.70;;
35306;SDS011;21420;52.196;21.416;2022-08-20T08:27:37;8.93;;;5.67;;
35306;SDS011;21420;52.196;21.416;2022-08-20T08:30:05;7.97;;;4.80;;
35306;SDS011;21420;52.196;21.416;2022-08-20T08:32:34;7.65;;;5.70;;
35306;SDS011;21420;52.196;21.416;2022-08-20T08:35:05;7.62;;;5.42;;
35306;SDS011;21420;52.196;21.416;2022-08-20T08:39:59;6.60;;;4.90;;
35306;SDS011;21420;52.196;21.416;2022-08-20T08:45:00;6.87;;;4.97;;
35306;SDS011;21420;52.196;21.416;2022-08-20T08:47:30;9.90;;;5.17;;
35306;SDS011;21420;52.196;21.416;2022-08-20T08:50:00;5.42;;;4.50;;
35306;SDS011;21420;52.196;21.416;2022-08-20T08:52:30;9.33;;;4.83;;
35306;SDS011;21420;52.196;21.416;2022-08-20T08:55:02;7.70;;;4.25;;
35306;SDS011;21420;52.196;21.416;2022-08-20T08:57:31;8.35;;;4.37;;
35306;SDS011;21420;52.196;21.416;2022-08-20T08:59:59;6.78;;;4.20;;
35306;SDS011;21420;52.196;21.416;2022-08-20T09:02:39;10.68;;;4.40;;
35306;SDS011;21420;52.196;21.416;2022-08-20T09:05:29;11.30;;;4.90;;
35306;SDS011;21420;52.196;21.416;2022-08-20T09:08:06;8.73;;;3.95;;
35306;SDS011;21420;52.196;21.416;2022-08-20T09:10:36;6.67;;;4.60;;
35306;SDS011;21420;52.196;21.416;2022-08-20T09:13:07;10.72;;;4.92;;
35306;SDS011;21420;52.196;21.416;2022-08-20T09:15:33;9.98;;;4.37;;
35306;SDS011;21420;52.196;21.416;2022-08-20T09:18:00;11.00;;;4.58;;
35306;SDS011;21420;52.196;21.416;2022-08-20T09:20:29;12.47;;;4.90;;
35306;SDS011;21420;52.196;21.416;2022-08-20T09:22:55;11.65;;;4.35;;
35306;SDS011;21420;52.196;21.416;2022-08-20T09:25:22;7.33;;;4.35;;
35306;SDS011;21420;52.196;21.416;2022-08-20T09:27:48;6.33;;;3.72;;
35306;SDS011;21420;52.196;21.416;2022-08-20T09:32:43;10.58;;;4.70;;
35306;SDS011;21420;52.196;21.416;2022-08-20T09:35:10;11.35;;;4.28;;
35306;SDS011;21420;52.196;21.416;2022-08-20T09:37:37;12.00;;;4.25;;
35306;SDS011;21420;52.196;21.416;2022-08-20T09:40:05;6.05;;;3.92;;
35306;SDS011;21420;52.196;21.416;2022-08-20T09:42:34;7.08;;;4.00;;
35306;SDS011;21420;52.196;21.416;2022-08-20T09:45:02;6.47;;;4.12;;
35306;SDS011;21420;52.196;21.416;2022-08-20T09:47:30;10.00;;;4.30;;
35306;SDS011;21420;52.196;21.416;2022-08-20T09:49:56;11.57;;;4.20;;
35306;SDS011;21420;52.196;21.416;2022-08-20T09:52:26;13.35;;;4.58;;
35306;SDS011;21420;52.196;21.416;2022-08-20T09:55:01;9.45;;;4.30;;
35306;SDS011;21420;52.196;21.416;2022-08-20T09:57:46;8.00;;;3.92;;
35306;SDS011;21420;52.196;21.416;2022-08-20T10:00:14;6.17;;;4.10;;
35306;SDS011;21420;52.196;21.416;2022-08-20T10:02:42;8.55;;;4.20;;
35306;SDS011;21420;52.196;21.416;2022-08-20T10:05:10;11.18;;;4.55;;
35306;SDS011;21420;52.196;21.416;2022-08-20T10:07:37;11.25;;;4.72;;
35306;SDS011;21420;52.196;21.416;2022-08-20T10:10:06;5.80;;;3.80;;
35306;SDS011;21420;52.196;21.416;2022-08-20T10:12:36;5.20;;;3.83;;
35306;SDS011;21420;52.196;21.416;2022-08-20T10:15:03;6.97;;;4.37;;
35306;SDS011;21420;52.196;21.416;2022-08-20T10:17:30;8.13;;;4.33;;
35306;SDS011;21420;52.196;21.416;2022-08-20T10:19:56;8.40;;;4.45;;
35306;SDS011;21420;52.196;21.416;2022-08-20T10:22:22;6.72;;;4.72;;
35306;SDS011;21420;52.196;21.416;2022-08-20T10:24:48;10.75;;;4.40;;
35306;SDS011;21420;52.196;21.416;2022-08-20T10:27:14;6.62;;;4.35;;
35306;SDS011;21420;52.196;21.416;2022-08-20T10:29:41;7.12;;;4.08;;
35306;SDS011;21420;52.196;21.416;2022-08-20T10:32:12;13.68;;;4.58;;
35306;SDS011;21420;52.196;21.416;2022-08-20T10:34:38;10.53;;;4.35;;
35306;SDS011;21420;52.196;21.416;2022-08-20T10:37:07;5.72;;;4.20;;
35306;SDS011;21420;52.196;21.416;2022-08-20T10:39:35;5.67;;;4.15;;
35306;SDS011;21420;52.196;21.416;2022-08-20T10:42:01;11.68;;;4.53;;
35306;SDS011;21420;52.196;21.416;2022-08-20T10:44:28;13.95;;;4.90;;
35306;SDS011;21420;52.196;21.416;2022-08-20T10:46:54;8.20;;;4.95;;
35306;SDS011;21420;52.196;21.416;2022-08-20T10:49:20;7.97;;;4.25;;
35306;SDS011;21420;52.196;21.416;2022-08-20T10:51:47;9.88;;;5.05;;
35306;SDS011;21420;52.196;21.416;2022-08-20T10:54:13;5.72;;;4.70;;
35306;SDS011;21420;52.196;21.416;2022-08-20T10:56:39;6.08;;;3.90;;
35306;SDS011;21420;52.196;21.416;2022-08-20T10:59:06;11.65;;;4.40;;
35306;SDS011;21420;52.196;21.416;2022-08-20T11:01:32;8.60;;;5.08;;
35306;SDS011;21420;52.196;21.416;2022-08-20T11:03:59;6.40;;;4.60;;
35306;SDS011;21420;52.196;21.416;2022-08-20T11:06:25;10.20;;;4.00;;
35306;SDS011;21420;52.196;21.416;2022-08-20T11:08:52;6.58;;;3.85;;
35306;SDS011;21420;52.196;21.416;2022-08-20T11:11:18;9.93;;;4.55;;
35306;SDS011;21420;52.196;21.416;2022-08-20T11:13:44;10.20;;;4.72;;
35306;SDS011;21420;52.196;21.416;2022-08-20T11:16:10;6.75;;;4.45;;
35306;SDS011;21420;52.196;21.416;2022-08-20T11:18:36;6.67;;;4.65;;
35306;SDS011;21420;52.196;21.416;2022-08-20T11:21:02;8.50;;;4.50;;
35306;SDS011;21420;52.196;21.416;2022-08-20T11:23:29;10.08;;;4.60;;
35306;SDS011;21420;52.196;21.416;2022-08-20T11:25:55;13.68;;;4.58;;
35306;SDS011;21420;52.196;21.416;2022-08-20T11:28:21;10.38;;;3.60;;
35306;SDS011;21420;52.196;21.416;2022-08-20T11:30:48;8.23;;;4.45;;
35306;SDS011;21420;52.196;21.416;2022-08-20T11:33:14;7.20;;;4.50;;
35306;SDS011;21420;52.196;21.416;2022-08-20T11:35:40;12.03;;;4.90;;
35306;SDS011;21420;52.196;21.416;2022-08-20T11:38:07;8.60;;;3.90;;
35306;SDS011;21420;52.196;21.416;2022-08-20T11:40:33;8.40;;;4.62;;
35306;SDS011;21420;52.196;21.416;2022-08-20T11:42:59;13.32;;;4.50;;
35306;SDS011;21420;52.196;21.416;2022-08-20T11:45:26;8.60;;;4.55;;
35306;SDS011;21420;52.196;21.416;2022-08-20T11:47:54;7.50;;;4.20;;
35306;SDS011;21420;52.196;21.416;2022-08-20T11:50:20;20.50;;;6.22;;
35306;SDS011;21420;52.196;21.416;2022-08-20T11:52:47;7.87;;;4.80;;
35306;SDS011;21420;52.196;21.416;2022-08-20T11:55:15;6.67;;;4.65;;
35306;SDS011;21420;52.196;21.416;2022-08-20T11:57:43;17.32;;;5.50;;
35306;SDS011;21420;52.196;21.416;2022-08-20T12:00:13;10.95;;;5.00;;
35306;SDS011;21420;52.196;21.416;2022-08-20T12:02:43;7.12;;;4.42;;
35306;SDS011;21420;52.196;21.416;2022-08-20T12:05:10;9.15;;;4.45;;
35306;SDS011;21420;52.196;21.416;2022-08-20T12:07:37;8.53;;;4.47;;
35306;SDS011;21420;52.196;21.416;2022-08-20T12:10:04;15.78;;;4.97;;
35306;SDS011;21420;52.196;21.416;2022-08-20T12:12:34;7.00;;;4.75;;
35306;SDS011;21420;52.196;21.416;2022-08-20T12:15:03;12.10;;;4.78;;
35306;SDS011;21420;52.196;21.416;2022-08-20T12:17:31;6.80;;;4.30;;
35306;SDS011;21420;52.196;21.416;2022-08-20T12:19:59;10.18;;;4.87;;
35306;SDS011;21420;52.196;21.416;2022-08-20T12:22:31;6.83;;;4.45;;
35306;SDS011;21420;52.196;21.416;2022-08-20T12:24:59;6.12;;;4.28;;
35306;SDS011;21420;52.196;21.416;2022-08-20T12:27:26;13.62;;;5.00;;
35306;SDS011;21420;52.196;21.416;2022-08-20T12:29:55;13.55;;;4.92;;
35306;SDS011;21420;52.196;21.416;2022-08-20T12:32:24;9.70;;;4.08;;
35306;SDS011;21420;52.196;21.416;2022-08-20T12:34:54;7.75;;;4.83;;
35306;SDS011;21420;52.196;21.416;2022-08-20T12:37:22;11.30;;;4.33;;
35306;SDS011;21420;52.196;21.416;2022-08-20T12:39:52;9.28;;;4.60;;
35306;SDS011;21420;52.196;21.416;2022-08-20T12:42:22;8.70;;;4.45;;
35306;SDS011;21420;52.196;21.416;2022-08-20T12:44:49;9.90;;;4.65;;
35306;SDS011;21420;52.196;21.416;2022-08-20T12:49:51;5.15;;;4.35;;
35306;SDS011;21420;52.196;21.416;2022-08-20T12:52:21;6.00;;;4.10;;
35306;SDS011;21420;52.196;21.416;2022-08-20T12:54:49;9.50;;;4.60;;
35306;SDS011;21420;52.196;21.416;2022-08-20T12:57:28;6.83;;;4.70;;
35306;SDS011;21420;52.196;21.416;2022-08-20T13:00:05;8.20;;;4.10;;
35306;SDS011;21420;52.196;21.416;2022-08-20T13:02:36;11.43;;;5.05;;
35306;SDS011;21420;52.196;21.416;2022-08-20T13:07:32;7.95;;;4.60;;
35306;SDS011;21420;52.196;21.416;2022-08-20T13:09:59;9.85;;;4.72;;
35306;SDS011;21420;52.196;21.416;2022-08-20T13:12:26;8.43;;;5.15;;
35306;SDS011;21420;52.196;21.416;2022-08-20T13:14:52;8.25;;;4.30;;
35306;SDS011;21420;52.196;21.416;2022-08-20T13:17:19;5.40;;;3.85;;
35306;SDS011;21420;52.196;21.416;2022-08-20T13:19:45;7.90;;;4.08;;
35306;SDS011;21420;52.196;21.416;2022-08-20T13:22:12;8.80;;;4.47;;
35306;SDS011;21420;52.196;21.416;2022-08-20T13:24:39;7.17;;;4.28;;
35306;SDS011;21420;52.196;21.416;2022-08-20T13:27:07;5.17;;;4.15;;
35306;SDS011;21420;52.196;21.416;2022-08-20T13:29:37;14.98;;;4.92;;
35306;SDS011;21420;52.196;21.416;2022-08-20T13:32:03;10.90;;;4.12;;
35306;SDS011;21420;52.196;21.416;2022-08-20T13:34:31;6.30;;;4.22;;
35306;SDS011;21420;52.196;21.416;2022-08-20T13:36:57;5.87;;;4.30;;
35306;SDS011;21420;52.196;21.416;2022-08-20T13:39:23;9.60;;;4.40;;
35306;SDS011;21420;52.196;21.416;2022-08-20T13:41:50;7.67;;;4.37;;
35306;SDS011;21420;52.196;21.416;2022-08-20T13:44:16;4.80;;;4.03;;
35306;SDS011;21420;52.196;21.416;2022-08-20T13:46:42;8.65;;;4.50;;
35306;SDS011;21420;52.196;21.416;2022-08-20T13:49:09;7.97;;;3.75;;
35306;SDS011;21420;52.196;21.416;2022-08-20T13:51:37;9.98;;;4.53;;
35306;SDS011;21420;52.196;21.416;2022-08-20T13:54:03;10.58;;;4.10;;
35306;SDS011;21420;52.196;21.416;2022-08-20T13:56:30;6.22;;;4.20;;
35306;SDS011;21420;52.196;21.416;2022-08-20T13:58:56;7.05;;;4.22;;
35306;SDS011;21420;52.196;21.416;2022-08-20T14:01:24;7.50;;;4.15;;
35306;SDS011;21420;52.196;21.416;2022-08-20T14:03:50;9.05;;;4.00;;
35306;SDS011;21420;52.196;21.416;2022-08-20T14:06:16;11.33;;;4.62;;
35306;SDS011;21420;52.196;21.416;2022-08-20T14:08:43;7.62;;;4.25;;
35306;SDS011;21420;52.196;21.416;2022-08-20T14:11:09;8.38;;;4.12;;
35306;SDS011;21420;52.196;21.416;2022-08-20T14:13:36;8.60;;;4.42;;
35306;SDS011;21420;52.196;21.416;2022-08-20T14:16:02;6.83;;;4.30;;
35306;SDS011;21420;52.196;21.416;2022-08-20T14:18:29;8.58;;;4.00;;
35306;SDS011;21420;52.196;21.416;2022-08-20T14:20:56;11.50;;;4.33;;
35306;SDS011;21420;52.196;21.416;2022-08-20T14:23:22;8.30;;;3.92;;
35306;SDS011;21420;52.196;21.416;2022-08-20T14:25:48;6.97;;;4.22;;
35306;SDS011;21420;52.196;21.416;2022-08-20T14:28:17;22.80;;;6.40;;
35306;SDS011;21420;52.196;21.416;2022-08-20T14:30:46;12.07;;;4.50;;
35306;SDS011;21420;52.196;21.416;2022-08-20T14:33:13;10.40;;;4.40;;
35306;SDS011;21420;52.196;21.416;2022-08-20T14:35:41;8.08;;;4.08;;
35306;SDS011;21420;52.196;21.416;2022-08-20T14:38:07;16.82;;;4.70;;
35306;SDS011;21420;52.196;21.416;2022-08-20T14:40:33;12.00;;;4.53;;
35306;SDS011;21420;52.196;21.416;2022-08-20T14:43:02;14.90;;;4.67;;
35306;SDS011;21420;52.196;21.416;2022-08-20T14:45:28;6.97;;;4.90;;
35306;SDS011;21420;52.196;21.416;2022-08-20T14:47:56;7.75;;;4.62;;
35306;SDS011;21420;52.196;21.416;2022-08-20T14:50:31;10.13;;;4.12;;
35306;SDS011;21420;52.196;21.416;2022-08-20T14:52:59;11.70;;;4.42;;
35306;SDS011;21420;52.196;21.416;2022-08-20T14:55:28;6.45;;;4.85;;
35306;SDS011;21420;52.196;21.416;2022-08-20T14:58:05;9.95;;;4.67;;
35306;SDS011;21420;52.196;21.416;2022-08-20T15:00:35;9.50;;;5.55;;
35306;SDS011;21420;52.196;21.416;2022-08-20T15:03:01;6.92;;;4.45;;